Time;durP1;ratioP1;P1;durP2;ratioP2;P2;SDS_P1;SDS_P2;PMS_P1;PMS_P2;Temp;Humidity;BMP_temperature;BMP_pressure;BME280_temperature;BME280_humidity;BME280_pressure;Samples;Min_cycle;Max_cycle;Signal;HPM_P1;HPM_P2
2023/10/27 00:01:50;;;;;;;16.50;13.10;;;;;;;11.48;100.00;98558.01;107323;1272;97748;-79
2023/10/27 00:04:36;;;;;;;14.60;11.70;;;;;;;11.47;100.00;98556.16;107336;1273;95676;-79
2023/10/27 00:07:21;;;;;;;15.80;12.40;;;;;;;11.47;100.00;98553.55;107401;1270;96418;-79
2023/10/27 00:10:07;;;;;;;15.40;12.90;;;;;;;11.48;100.00;98550.76;107378;1270;102673;-79
2023/10/27 00:12:52;;;;;;;16.20;12.20;;;;;;;11.48;100.00;98546.89;107363;1273;99192;-80
2023/10/27 00:15:38;;;;;;;14.50;12.60;;;;;;;11.48;100.00;98543.38;107358;1271;97831;-80
2023/10/27 00:18:23;;;;;;;14.40;12.20;;;;;;;11.46;100.00;98538.89;107446;1274;95803;-80
2023/10/27 00:21:09;;;;;;;16.20;12.10;;;;;;;11.45;100.00;98534.36;107355;1272;96265;-80
2023/10/27 00:23:54;;;;;;;14.10;12.20;;;;;;;11.44;100.00;98536.38;107509;1270;101383;-80
2023/10/27 00:26:39;;;;;;;13.20;11.20;;;;;;;11.43;100.00;98536.32;107465;1272;99234;-78
2023/10/27 00:29:25;;;;;;;16.40;13.50;;;;;;;11.43;100.00;98542.95;107390;1272;97798;-79
2023/10/27 00:32:10;;;;;;;14.30;11.90;;;;;;;11.42;100.00;98544.75;107235;1273;95371;-80
2023/10/27 00:34:55;;;;;;;15.20;11.70;;;;;;;11.41;100.00;98546.78;107397;1271;95513;-79
2023/10/27 00:37:41;;;;;;;12.80;10.90;;;;;;;11.43;100.00;98548.38;107362;1273;102641;-79
2023/10/27 00:40:26;;;;;;;14.40;11.90;;;;;;;11.44;100.00;98553.65;107417;1272;99184;-80
2023/10/27 00:43:18;;;;;;;14.00;12.50;;;;;;;11.45;100.00;98553.56;107386;1272;98478;-79
2023/10/27 00:46:04;;;;;;;13.80;12.40;;;;;;;11.46;100.00;98551.59;107363;1272;95599;-79
2023/10/27 00:48:49;;;;;;;14.70;12.80;;;;;;;11.47;100.00;98548.23;107379;1272;95851;-79
2023/10/27 00:51:34;;;;;;;17.30;12.80;;;;;;;11.46;100.00;98542.05;107385;1272;102050;-79
2023/10/27 00:54:21;;;;;;;15.40;12.30;;;;;;;11.48;100.00;98540.40;107372;1273;100486;-79
2023/10/27 00:57:07;;;;;;;15.10;13.50;;;;;;;11.49;100.00;98546.92;107241;1272;99585;-80
2023/10/27 00:59:52;;;;;;;15.00;13.00;;;;;;;11.51;100.00;98548.71;107340;1273;95518;-79
2023/10/27 01:02:37;;;;;;;20.20;13.60;;;;;;;11.50;100.00;98547.52;107354;1273;95849;-79
2023/10/27 01:05:23;;;;;;;14.90;12.60;;;;;;;11.52;100.00;98550.52;107431;1273;101374;-79
2023/10/27 01:08:09;;;;;;;13.20;10.90;;;;;;;11.54;100.00;98549.85;107385;1273;99169;-80
2023/10/27 01:10:56;;;;;;;11.70;10.40;;;;;;;11.53;100.00;98541.58;107278;1272;97849;-80
2023/10/27 01:13:41;;;;;;;11.80;10.60;;;;;;;11.51;100.00;98535.75;107377;1271;95506;-79
2023/10/27 01:16:27;;;;;;;14.70;11.80;;;;;;;11.50;100.00;98529.61;107352;1272;95705;-78
2023/10/27 01:19:12;;;;;;;13.10;10.20;;;;;;;11.49;100.00;98531.05;107217;1273;101470;-79
2023/10/27 01:21:58;;;;;;;12.50;10.80;;;;;;;11.48;100.00;98529.44;107287;1273;100170;-79
2023/10/27 01:24:43;;;;;;;11.90;9.90;;;;;;;11.49;100.00;98533.99;107292;1273;98643;-80
2023/10/27 01:27:29;;;;;;;14.60;10.10;;;;;;;11.48;100.00;98538.59;107407;1272;95887;-79
2023/10/27 01:30:15;;;;;;;12.40;10.50;;;;;;;11.48;100.00;98542.77;107276;1273;95609;-79
2023/10/27 01:33:00;;;;;;;11.80;10.00;;;;;;;11.48;100.00;98541.81;107402;1273;101446;-79
2023/10/27 01:35:45;;;;;;;11.90;9.80;;;;;;;11.48;100.00;98535.05;107392;1271;99154;-79
2023/10/27 01:38:30;;;;;;;13.10;10.50;;;;;;;11.48;100.00;98530.98;107408;1271;98978;-80
2023/10/27 01:41:17;;;;;;;12.30;10.00;;;;;;;11.47;100.00;98528.34;107263;1272;95485;-79
2023/10/27 01:44:02;;;;;;;11.90;10.60;;;;;;;11.49;100.00;98522.41;107438;1272;95784;-79
2023/10/27 01:46:47;;;;;;;12.10;10.60;;;;;;;11.49;100.00;98521.81;107440;1273;101515;-79
2023/10/27 01:49:32;;;;;;;12.80;11.10;;;;;;;11.47;100.00;98513.06;107415;1272;107904;-79
2023/10/27 01:52:18;;;;;;;13.30;10.70;;;;;;;11.46;100.00;98510.72;107139;1273;99062;-79
2023/10/27 01:55:03;;;;;;;13.30;10.40;;;;;;;11.43;100.00;98510.79;107368;1273;95686;-79
2023/10/27 01:57:49;;;;;;;14.20;10.60;;;;;;;11.42;100.00;98510.23;107437;1273;95650;-79
2023/10/27 02:00:34;;;;;;;13.60;10.50;;;;;;;11.40;100.00;98506.28;107201;1273;101379;-79
2023/10/27 02:03:19;;;;;;;15.00;10.30;;;;;;;11.40;100.00;98504.73;107316;1272;99888;-79
2023/10/27 02:06:04;;;;;;;15.50;11.10;;;;;;;11.39;100.00;98499.13;107295;1272;97809;-79
2023/10/27 02:08:50;;;;;;;15.60;11.10;;;;;;;11.39;100.00;98503.80;107370;1273;95520;-79
2023/10/27 02:11:35;;;;;;;12.10;9.70;;;;;;;11.39;100.00;98505.94;107397;1271;95627;-79
2023/10/27 02:14:20;;;;;;;12.40;10.70;;;;;;;11.37;100.00;98502.31;107268;1273;102693;-79
2023/10/27 02:17:06;;;;;;;13.00;10.60;;;;;;;11.35;100.00;98495.64;107436;1273;100477;-79
2023/10/27 02:19:54;;;;;;;13.40;11.40;;;;;;;11.35;100.00;98491.51;107383;1272;97787;-79
2023/10/27 02:22:40;;;;;;;12.80;10.50;;;;;;;11.36;100.00;98498.06;107297;1271;94922;-79
2023/10/27 02:25:25;;;;;;;11.70;10.50;;;;;;;11.35;100.00;98499.71;107400;1272;95549;-79
2023/10/27 02:28:10;;;;;;;12.20;10.60;;;;;;;11.33;100.00;98499.55;107450;1272;101419;-79
2023/10/27 02:30:56;;;;;;;13.70;10.70;;;;;;;11.31;100.00;98498.52;107358;1273;99212;-79
2023/10/27 02:33:56;;;;;;;11.10;9.90;;;;;;;11.30;100.00;98499.31;107244;1272;98842;-79
2023/10/27 02:36:42;;;;;;;11.00;9.70;;;;;;;11.29;100.00;98503.16;107370;1273;95975;-79
2023/10/27 02:39:27;;;;;;;13.70;10.80;;;;;;;11.29;100.00;98503.73;107415;1273;95608;-80
2023/10/27 02:42:14;;;;;;;12.60;9.90;;;;;;;11.30;100.00;98503.48;107424;1271;101515;-79
2023/10/27 02:45:00;;;;;;;14.30;10.40;;;;;;;11.30;100.00;98503.06;107422;1272;99159;-79
2023/10/27 02:47:46;;;;;;;15.50;11.10;;;;;;;11.29;100.00;98497.95;107454;1272;97698;-79
2023/10/27 02:50:31;;;;;;;14.90;10.50;;;;;;;11.30;100.00;98495.44;107408;1273;95530;-79
2023/10/27 02:53:16;;;;;;;15.80;10.20;;;;;;;11.30;100.00;98495.39;107465;1273;96991;-80
2023/10/27 02:56:09;;;;;;;14.00;10.40;;;;;;;11.30;100.00;98495.06;107433;1272;102682;-79
2023/10/27 02:58:54;;;;;;;12.20;10.90;;;;;;;11.30;100.00;98493.98;107420;1270;99760;-80
2023/10/27 03:01:40;;;;;;;11.30;9.70;;;;;;;11.29;100.00;98490.02;107282;1273;99114;-79
2023/10/27 03:04:27;;;;;;;17.70;9.90;;;;;;;11.30;100.00;98484.93;107354;1270;95491;-79
2023/10/27 03:07:13;;;;;;;12.40;10.50;;;;;;;11.30;100.00;98485.26;107331;1272;96170;-80
2023/10/27 03:09:58;;;;;;;12.90;10.90;;;;;;;11.28;100.00;98482.06;107436;1272;101380;-79
2023/10/27 03:12:43;;;;;;;14.50;11.10;;;;;;;11.29;100.00;98482.19;107363;1273;99181;-80
2023/10/27 03:15:28;;;;;;;12.90;10.20;;;;;;;11.30;100.00;98479.38;107414;1272;97787;-79
2023/10/27 03:18:14;;;;;;;14.10;11.10;;;;;;;11.29;100.00;98473.77;107414;1273;95594;-79
2023/10/27 03:21:03;;;;;;;12.50;11.10;;;;;;;11.28;100.00;98467.27;107461;1271;95611;-79
2023/10/27 03:23:49;;;;;;;13.50;11.70;;;;;;;11.30;100.00;98463.28;107471;1272;102659;-79
2023/10/27 03:26:35;;;;;;;13.30;10.70;;;;;;;11.30;100.00;98463.71;107458;1273;99180;-78
2023/10/27 03:29:20;;;;;;;13.30;11.90;;;;;;;11.30;100.00;98460.55;107444;1273;97749;-79
2023/10/27 03:32:06;;;;;;;14.90;12.40;;;;;;;11.30;100.00;98456.27;107146;1276;95596;-79
2023/10/27 03:34:52;;;;;;;14.20;11.20;;;;;;;11.29;100.00;98454.54;107384;1272;95386;-79
2023/10/27 03:37:37;;;;;;;14.40;11.60;;;;;;;11.30;100.00;98451.96;107261;1274;101500;-79
2023/10/27 03:40:22;;;;;;;11.50;10.20;;;;;;;11.30;100.00;98457.16;107303;1273;99881;-79
2023/10/27 03:43:08;;;;;;;15.40;11.80;;;;;;;11.29;100.00;98456.83;107395;1272;109247;-79
2023/10/27 03:45:53;;;;;;;14.70;10.90;;;;;;;11.27;100.00;98452.41;107430;1272;95721;-78
2023/10/27 03:48:42;;;;;;;14.40;10.50;;;;;;;11.26;100.00;98448.80;107454;1272;95970;-79
2023/10/27 03:51:27;;;;;;;12.50;9.90;;;;;;;11.24;100.00;98446.78;107450;1272;101426;-79
2023/10/27 03:54:13;;;;;;;14.20;10.60;;;;;;;11.22;100.00;98448.62;107459;1273;99115;-79
2023/10/27 03:56:58;;;;;;;13.40;10.90;;;;;;;11.21;100.00;98454.98;107402;1273;97822;-79
2023/10/27 03:59:43;;;;;;;11.80;10.60;;;;;;;11.22;100.00;98461.70;107436;1272;95801;-79
2023/10/27 04:02:28;;;;;;;13.00;10.70;;;;;;;11.21;100.00;98465.13;107307;1272;95594;-79
2023/10/27 04:05:13;;;;;;;12.80;11.10;;;;;;;11.21;100.00;98470.42;107433;1271;101400;-79
2023/10/27 04:07:58;;;;;;;14.80;10.80;;;;;;;11.19;100.00;98471.13;107306;1272;99262;-79
2023/10/27 04:10:44;;;;;;;15.90;11.60;;;;;;;11.18;100.00;98470.52;107418;1273;99988;-79
2023/10/27 04:13:29;;;;;;;14.40;11.50;;;;;;;11.17;100.00;98470.71;107484;1272;95952;-80
2023/10/27 04:16:14;;;;;;;12.80;10.80;;;;;;;11.16;100.00;98476.01;107509;1273;95433;-79
2023/10/27 04:19:00;;;;;;;16.80;12.30;;;;;;;11.12;100.00;98480.71;107568;1272;101566;-79
2023/10/27 04:21:45;;;;;;;19.50;11.70;;;;;;;11.09;100.00;98478.40;107568;1272;99355;-80
2023/10/27 04:24:30;;;;;;;15.80;11.90;;;;;;;11.07;100.00;98475.79;107546;1272;98398;-80
2023/10/27 04:27:16;;;;;;;13.20;11.40;;;;;;;11.06;100.00;98473.05;107573;1272;95542;-80
2023/10/27 04:30:04;;;;;;;15.70;12.30;;;;;;;11.03;100.00;98470.59;107561;1271;95569;-80
2023/10/27 04:32:49;;;;;;;15.60;11.50;;;;;;;11.00;100.00;98469.17;107536;1274;101969;-80
2023/10/27 04:35:35;;;;;;;14.20;12.10;;;;;;;10.98;100.00;98470.71;107529;1272;99390;-80
2023/10/27 04:38:20;;;;;;;15.70;11.90;;;;;;;10.97;100.00;98476.00;107393;1273;97768;-79
2023/10/27 04:41:05;;;;;;;14.40;11.70;;;;;;;10.95;100.00;98479.77;107363;1272;95500;-79
2023/10/27 04:43:50;;;;;;;15.10;11.60;;;;;;;10.92;100.00;98476.77;107501;1272;95546;-79
2023/10/27 04:46:36;;;;;;;20.80;12.70;;;;;;;10.91;100.00;98481.04;107275;1273;103072;-79
2023/10/27 04:49:21;;;;;;;14.70;11.60;;;;;;;10.91;100.00;98478.57;107506;1272;100526;-79
2023/10/27 04:52:06;;;;;;;15.70;12.10;;;;;;;10.92;100.00;98476.50;107400;1273;99102;-79
2023/10/27 04:54:53;;;;;;;17.20;12.20;;;;;;;10.92;100.00;98477.85;107454;1271;95399;-79
2023/10/27 04:57:38;;;;;;;15.40;11.10;;;;;;;10.95;100.00;98482.55;107317;1272;95859;-79
2023/10/27 05:00:23;;;;;;;14.30;11.20;;;;;;;10.96;100.00;98480.00;107501;1273;101370;-79
2023/10/27 05:03:08;;;;;;;14.50;11.20;;;;;;;10.95;100.00;98485.23;107461;1273;99129;-79
2023/10/27 05:05:54;;;;;;;19.00;11.40;;;;;;;10.96;100.00;98489.92;107380;1273;97738;-79
2023/10/27 05:08:39;;;;;;;14.30;10.60;;;;;;;10.96;100.00;98487.02;107415;1272;95529;-79
2023/10/27 05:11:24;;;;;;;14.20;11.40;;;;;;;10.96;100.00;98491.03;107368;1272;96144;-79
2023/10/27 05:14:10;;;;;;;12.50;10.30;;;;;;;10.94;100.00;98494.48;107415;1273;101433;-79
2023/10/27 05:16:56;;;;;;;11.10;9.90;;;;;;;10.94;100.00;98497.67;107482;1272;99596;-80
2023/10/27 05:19:42;;;;;;;17.30;10.30;;;;;;;10.92;100.00;98495.41;107246;1273;97871;-81
2023/10/27 05:22:27;;;;;;;13.40;10.10;;;;;;;10.90;100.00;98495.52;107243;1272;95574;-79
2023/10/27 05:25:12;;;;;;;17.70;10.70;;;;;;;10.90;100.00;98498.58;107212;1273;95851;-78
2023/10/27 05:27:59;;;;;;;13.40;10.10;;;;;;;10.91;100.00;98501.74;107497;1272;101387;-80
2023/10/27 05:30:50;;;;;;;13.20;10.90;;;;;;;10.90;100.00;98502.00;107157;1272;99183;-80
2023/10/27 05:33:35;;;;;;;14.10;11.40;;;;;;;10.88;100.00;98501.86;107360;1272;99665;-80
2023/10/27 05:36:20;;;;;;;14.60;11.50;;;;;;;10.87;100.00;98502.85;107518;1273;95484;-79
2023/10/27 05:39:05;;;;;;;16.60;11.80;;;;;;;10.88;100.00;98505.67;107556;1273;95666;-80
2023/10/27 05:41:50;;;;;;;14.70;11.50;;;;;;;10.88;100.00;98506.73;107516;1272;101406;-80
2023/10/27 05:44:36;;;;;;;14.80;11.00;;;;;;;10.89;100.00;98511.47;107484;1272;99528;-80
2023/10/27 05:47:21;;;;;;;13.00;11.10;;;;;;;10.90;100.00;98511.22;107489;1272;97785;-79
2023/10/27 05:50:08;;;;;;;14.80;11.50;;;;;;;10.90;100.00;98510.48;107442;1272;95918;-79
2023/10/27 05:52:54;;;;;;;19.90;11.40;;;;;;;10.91;100.00;98511.45;107420;1273;95284;-79
2023/10/27 05:55:39;;;;;;;15.20;11.30;;;;;;;10.92;100.00;98510.02;107422;1271;102340;-80
2023/10/27 05:58:24;;;;;;;14.30;11.20;;;;;;;10.93;100.00;98509.40;107545;1272;99163;-80
2023/10/27 06:01:09;;;;;;;15.40;11.90;;;;;;;10.94;100.00;98510.53;107524;1273;97760;-79
2023/10/27 06:03:57;;;;;;;17.70;13.10;;;;;;;10.94;100.00;98512.79;107531;1273;95832;-80
2023/10/27 06:06:42;;;;;;;18.90;13.90;;;;;;;10.94;100.00;98514.25;107400;1273;95538;-80
2023/10/27 06:09:29;;;;;;;15.80;12.20;;;;;;;10.95;100.00;98522.95;107537;1272;102035;-80
2023/10/27 06:12:15;;;;;;;17.20;12.20;;;;;;;10.97;100.00;98529.61;107492;1273;101098;-80
2023/10/27 06:15:00;;;;;;;14.40;11.70;;;;;;;10.99;100.00;98531.42;107480;1273;99022;-80
2023/10/27 06:17:46;;;;;;;16.20;12.80;;;;;;;11.02;100.00;98531.28;107530;1273;95092;-80
2023/10/27 06:20:31;;;;;;;15.60;12.10;;;;;;;11.05;100.00;98531.66;107539;1273;95579;-80
2023/10/27 06:23:17;;;;;;;16.40;12.40;;;;;;;11.09;100.00;98535.75;107351;1273;102164;-80
2023/10/27 06:26:04;;;;;;;16.20;13.40;;;;;;;11.13;100.00;98535.45;107566;1272;101510;-80
2023/10/27 06:28:49;;;;;;;17.70;13.40;;;;;;;11.16;100.00;98537.39;107528;1273;97794;-80
2023/10/27 06:31:35;;;;;;;18.00;13.70;;;;;;;11.18;100.00;98535.12;107345;1273;95686;-80
2023/10/27 06:34:20;;;;;;;16.20;12.90;;;;;;;11.20;100.00;98533.22;107529;1272;95815;-80
2023/10/27 06:37:06;;;;;;;18.00;13.00;;;;;;;11.22;100.00;98535.50;107554;1273;101416;-80
2023/10/27 06:39:58;;;;;;;18.60;13.50;;;;;;;11.23;100.00;98540.30;107506;1273;99167;-80
2023/10/27 06:42:43;;;;;;;19.30;13.90;;;;;;;11.25;100.00;98538.73;107487;1272;97752;-80
2023/10/27 06:45:28;;;;;;;17.50;12.50;;;;;;;11.28;100.00;98539.31;107515;1272;95970;-80
2023/10/27 06:48:14;;;;;;;19.00;14.10;;;;;;;11.29;100.00;98545.17;107447;1273;96356;-79
2023/10/27 06:50:59;;;;;;;20.30;14.90;;;;;;;11.31;100.00;98544.19;107427;1273;103064;-80
2023/10/27 06:53:44;;;;;;;23.50;15.80;;;;;;;11.33;100.00;98543.04;107416;1272;101107;-78
2023/10/27 06:56:29;;;;;;;20.30;15.20;;;;;;;11.36;100.00;98540.70;107421;1273;99138;-80
2023/10/27 06:59:14;;;;;;;22.40;16.10;;;;;;;11.38;100.00;98540.52;107514;1274;95389;-80
2023/10/27 07:02:00;;;;;;;20.30;15.00;;;;;;;11.41;100.00;98541.75;107461;1272;95567;-81
2023/10/27 07:04:45;;;;;;;26.40;16.40;;;;;;;11.43;100.00;98539.58;107477;1272;102307;-80
2023/10/27 07:07:31;;;;;;;21.20;15.50;;;;;;;11.45;100.00;98538.54;107315;1273;99858;-81
2023/10/27 07:10:16;;;;;;;20.80;15.60;;;;;;;11.46;100.00;98538.13;107258;1272;98952;-88
2023/10/27 07:13:03;;;;;;;19.50;15.40;;;;;;;11.48;100.00;98536.86;107089;1273;95551;-86
2023/10/27 07:15:49;;;;;;;16.90;14.10;;;;;;;11.50;100.00;98531.77;107153;1274;96769;-85
2023/10/27 07:18:34;;;;;;;21.90;14.80;;;;;;;11.52;100.00;98526.48;107249;1273;102713;-87
2023/10/27 07:21:20;;;;;;;17.20;13.80;;;;;;;11.55;100.00;98521.43;107244;1273;99933;-87
2023/10/27 07:24:06;;;;;;;20.70;14.30;;;;;;;11.57;100.00;98517.83;107177;1273;99149;-87
2023/10/27 07:26:51;;;;;;;19.50;13.80;;;;;;;11.60;100.00;98514.34;107192;1271;95207;-85
2023/10/27 07:29:37;;;;;;;21.60;15.30;;;;;;;11.64;100.00;98513.86;107143;1273;95966;-91
2023/10/27 07:32:22;;;;;;;21.30;14.90;;;;;;;11.67;100.00;98510.55;107153;1273;101377;-89
2023/10/27 07:35:08;;;;;;;21.20;14.30;;;;;;;11.71;100.00;98511.95;107225;1273;99210;-89
2023/10/27 07:37:53;;;;;;;19.60;13.90;;;;;;;11.74;100.00;98514.59;107223;1273;97745;-80
2023/10/27 07:40:42;;;;;;;18.50;14.50;;;;;;;11.78;100.00;98516.32;107545;1272;95494;-80
2023/10/27 07:43:27;;;;;;;17.80;13.50;;;;;;;11.79;100.00;98512.37;107481;1272;95510;-80
2023/10/27 07:46:13;;;;;;;17.80;14.30;;;;;;;11.81;100.00;98511.86;107519;1273;103303;-80
2023/10/27 07:48:58;;;;;;;19.50;14.60;;;;;;;11.82;100.00;98512.89;107510;1273;99052;-80
2023/10/27 07:51:44;;;;;;;18.30;13.40;;;;;;;11.84;100.00;98514.37;107411;1272;98906;-87
2023/10/27 07:54:29;;;;;;;18.50;14.40;;;;;;;11.89;100.00;98522.22;107131;1273;95617;-87
2023/10/27 07:57:15;;;;;;;18.80;13.80;;;;;;;11.92;100.00;98524.46;107154;1272;95949;-86
2023/10/27 08:00:02;;;;;;;15.00;13.00;;;;;;;11.93;100.00;98527.81;107362;1274;101464;-80
2023/10/27 08:02:53;;;;;;;18.00;13.00;;;;;;;11.95;100.00;98530.70;107495;1273;100453;-80
2023/10/27 08:05:39;;;;;;;15.50;12.30;;;;;;;11.97;100.00;98534.20;107272;1273;99443;-79
2023/10/27 08:08:24;;;;;;;14.80;11.60;;;;;;;11.97;100.00;98535.06;107167;1273;96109;-80
2023/10/27 08:11:18;;;;;;;17.50;12.50;;;;;;;11.96;100.00;98537.68;107287;1272;95610;-79
2023/10/27 08:14:04;;;;;;;16.10;12.10;;;;;;;11.96;100.00;98538.86;107314;1273;102670;-80
2023/10/27 08:16:49;;;;;;;16.30;11.90;;;;;;;11.97;100.00;98539.19;107470;1272;99272;-79
2023/10/27 08:19:35;;;;;;;18.60;11.50;;;;;;;11.96;100.00;98535.58;107387;1276;97771;-80
2023/10/27 08:22:20;;;;;;;16.50;10.30;;;;;;;11.96;100.00;98541.71;107385;1272;95451;-80
2023/10/27 08:25:06;;;;;;;12.80;10.60;;;;;;;11.98;100.00;98541.26;107501;1273;95591;-79
2023/10/27 08:27:51;;;;;;;12.50;9.80;;;;;;;11.99;100.00;98537.14;107471;1273;101450;-80
2023/10/27 08:30:36;;;;;;;12.90;9.90;;;;;;;12.01;100.00;98541.14;107447;1272;99188;-79
2023/10/27 08:33:22;;;;;;;15.60;11.20;;;;;;;12.03;100.00;98539.19;107416;1272;97820;-79
2023/10/27 08:36:07;;;;;;;14.60;10.70;;;;;;;12.07;100.00;98538.87;107241;1273;95629;-79
2023/10/27 08:38:54;;;;;;;12.40;10.50;;;;;;;12.10;100.00;98536.66;107335;1274;95880;-79
2023/10/27 08:41:40;;;;;;;13.10;10.10;;;;;;;12.13;100.00;98535.09;107367;1271;102027;-79
2023/10/27 08:44:27;;;;;;;17.00;11.60;;;;;;;12.17;100.00;98534.35;107323;1276;99177;-79
2023/10/27 08:47:12;;;;;;;18.30;12.70;;;;;;;12.23;100.00;98534.21;107196;1273;97798;-79
2023/10/27 08:50:01;;;;;;;14.40;12.70;;;;;;;12.31;100.00;98535.08;107440;1271;95798;-81
2023/10/27 08:52:48;;;;;;;14.80;12.40;;;;;;;12.38;100.00;98529.75;107417;1273;95090;-79
2023/10/27 08:55:33;;;;;;;12.90;11.30;;;;;;;12.39;100.00;98524.52;107377;1272;101389;-79
2023/10/27 08:58:19;;;;;;;15.50;10.50;;;;;;;12.36;100.00;98526.23;107419;1272;99151;-79
2023/10/27 09:01:04;;;;;;;13.50;11.20;;;;;;;12.37;100.00;98525.66;107378;1273;99557;-79
2023/10/27 09:04:12;;;;;;;11.50;9.50;;;;;;;12.39;100.00;98526.38;107351;1272;95288;-79
2023/10/27 09:06:57;;;;;;;11.70;8.90;;;;;;;12.36;100.00;98527.94;107368;1275;95637;-78
2023/10/27 09:09:43;;;;;;;9.40;7.80;;;;;;;12.32;100.00;98530.37;107392;1273;101469;-79
2023/10/27 09:12:30;;;;;;;10.60;7.40;;;;;;;12.27;100.00;98526.44;107372;1273;99290;-79
2023/10/27 09:15:16;;;;;;;10.80;8.00;;;;;;;12.24;100.00;98529.84;107406;1274;97767;-79
2023/10/27 09:18:01;;;;;;;8.50;7.20;;;;;;;12.23;100.00;98528.15;107371;1273;95498;-79
2023/10/27 09:20:49;;;;;;;7.30;6.50;;;;;;;12.22;100.00;98533.51;107403;1272;95925;-78
2023/10/27 09:23:44;;;;;;;7.60;6.50;;;;;;;12.21;100.00;98534.23;107359;1273;101448;-79
2023/10/27 09:26:45;;;;;;;7.80;6.70;;;;;;;12.23;100.00;98529.07;107385;1273;100398;-79
2023/10/27 09:29:40;;;;;;;;;;;;;;;12.24;100.00;98523.27;107390;1271;98870;-79
2023/10/27 09:32:27;;;;;;;10.90;7.00;;;;;;;12.23;100.00;98516.66;107397;1273;95478;-79
2023/10/27 09:35:17;;;;;;;11.00;9.20;;;;;;;12.20;100.00;98517.05;107234;1273;95519;-79
2023/10/27 09:38:03;;;;;;;11.70;9.40;;;;;;;12.18;100.00;98516.90;107404;1273;101732;-79
2023/10/27 09:40:49;;;;;;;12.00;10.20;;;;;;;12.18;100.00;98517.28;107401;1272;99104;-79
2023/10/27 09:43:40;;;;;;;14.50;10.70;;;;;;;12.17;100.00;98518.79;107202;1271;99454;-78
2023/10/27 09:46:26;;;;;;;;;;;;;;;12.18;100.00;98520.13;107457;1274;95389;-79
2023/10/27 09:49:12;;;;;;;15.30;10.80;;;;;;;12.16;100.00;98519.16;107404;1274;95589;-79
2023/10/27 09:52:01;;;;;;;15.50;12.50;;;;;;;12.17;100.00;98515.17;107389;1273;101477;-78
2023/10/27 09:54:46;;;;;;;17.50;11.90;;;;;;;12.16;100.00;98516.72;107419;1274;99119;-78
2023/10/27 09:57:32;;;;;;;16.30;13.10;;;;;;;12.15;100.00;98511.23;107334;1274;97775;-79
2023/10/27 10:00:21;;;;;;;16.40;13.30;;;;;;;12.15;100.00;98508.83;107375;1271;95545;-79
2023/10/27 10:03:06;;;;;;;16.20;13.10;;;;;;;12.16;100.00;98508.63;107383;1272;95809;-79
2023/10/27 10:06:12;;;;;;;18.80;14.10;;;;;;;12.16;100.00;98507.97;107390;1273;101489;-78
2023/10/27 10:09:14;;;;;;;20.10;13.00;;;;;;;12.16;100.00;98505.40;107355;1273;99134;-79
2023/10/27 10:11:59;;;;;;;16.50;12.70;;;;;;;12.15;100.00;98504.36;107257;1272;99076;-79
2023/10/27 10:14:46;;;;;;;16.50;12.10;;;;;;;12.17;100.00;98502.45;107325;1276;95583;-79
2023/10/27 10:17:39;;;;;;;15.30;12.80;;;;;;;12.20;100.00;98493.96;107373;1273;95459;-78
2023/10/27 10:20:44;;;;;;;14.20;11.90;;;;;;;12.25;100.00;98490.42;107254;1273;101385;-79
2023/10/27 10:23:38;;;;;;;13.90;11.20;;;;;;;12.27;100.00;98489.70;107342;1273;99165;-78
2023/10/27 10:26:59;;;;;;;16.70;13.00;;;;;;;12.28;100.00;98491.45;107271;1272;97890;-78
2023/10/27 10:29:44;;;;;;;13.60;11.70;;;;;;;12.35;100.00;98490.52;107302;1273;96050;-78
2023/10/27 10:32:34;;;;;;;13.90;12.40;;;;;;;12.45;100.00;98485.92;107382;1273;95854;-79
2023/10/27 10:35:23;;;;;;;13.10;10.90;;;;;;;12.49;100.00;98482.91;107354;1273;102727;-78
2023/10/27 10:38:21;;;;;;;14.40;11.50;;;;;;;12.49;100.00;98476.14;107359;1273;100174;-78
2023/10/27 10:41:06;;;;;;;13.20;10.40;;;;;;;12.49;100.00;98472.45;107335;1272;97747;-78
2023/10/27 10:44:14;;;;;;;13.40;10.90;;;;;;;12.49;100.00;98473.56;107249;1276;95528;-78
2023/10/27 10:47:00;;;;;;;11.60;10.20;;;;;;;12.48;100.00;98466.39;107186;1272;95907;-78
2023/10/27 10:49:45;;;;;;;12.50;9.70;;;;;;;12.47;100.00;98467.89;107284;1273;102085;-78
2023/10/27 10:52:30;;;;;;;13.50;9.30;;;;;;;12.51;100.00;98471.27;107307;1274;99120;-79
2023/10/27 10:55:20;;;;;;;14.30;9.20;;;;;;;12.54;100.00;98474.27;107356;1272;98661;-78
2023/10/27 10:58:05;;;;;;;13.70;9.50;;;;;;;12.56;100.00;98472.08;107346;1273;95845;-78
2023/10/27 11:00:53;;;;;;;13.40;9.30;;;;;;;12.58;100.00;98472.11;107387;1273;95939;-78
2023/10/27 11:03:38;;;;;;;11.60;8.80;;;;;;;12.62;100.00;98468.61;107371;1272;101542;-78
2023/10/27 11:06:28;;;;;;;14.30;9.10;;;;;;;12.69;100.00;98469.59;107335;1273;99136;-79
2023/10/27 11:09:23;;;;;;;12.50;8.90;;;;;;;12.76;100.00;98469.41;107341;1274;98970;-78
2023/10/27 11:12:24;;;;;;;11.90;9.10;;;;;;;12.82;100.00;98470.51;107282;1276;95512;-79
2023/10/27 11:15:09;;;;;;;10.80;8.60;;;;;;;12.88;100.00;98464.38;107352;1273;95438;-79
2023/10/27 11:18:04;;;;;;;10.30;7.60;;;;;;;12.90;100.00;98461.50;107285;1273;102667;-79
2023/10/27 11:20:49;;;;;;;15.90;8.30;;;;;;;12.95;100.00;98452.56;107315;1273;99171;-78
2023/10/27 11:23:34;;;;;;;11.00;8.50;;;;;;;12.98;100.00;98449.87;107129;1272;97762;-78
2023/10/27 11:26:20;;;;;;;10.90;8.20;;;;;;;13.00;100.00;98448.23;107287;1274;95700;-78
2023/10/27 11:29:09;;;;;;;10.90;8.30;;;;;;;13.01;100.00;98444.63;107296;1273;95859;-79
2023/10/27 11:31:54;;;;;;;10.60;8.40;;;;;;;13.05;100.00;98446.73;107090;1274;102619;-78
2023/10/27 11:34:39;;;;;;;11.60;9.70;;;;;;;13.10;100.00;98445.17;107338;1272;99198;-78
2023/10/27 11:37:25;;;;;;;11.80;9.60;;;;;;;13.14;100.00;98445.32;107316;1273;97793;-78
2023/10/27 11:40:13;;;;;;;12.60;9.40;;;;;;;13.16;100.00;98448.39;107304;1272;95637;-79
2023/10/27 11:43:00;;;;;;;12.40;9.70;;;;;;;13.19;100.00;98448.85;107203;1276;96428;-79
2023/10/27 11:45:46;;;;;;;10.80;9.10;;;;;;;13.22;100.00;98446.02;107344;1273;101959;-78
2023/10/27 11:48:31;;;;;;;13.30;8.90;;;;;;;13.24;100.00;98446.27;107288;1273;99268;-79
2023/10/27 11:51:16;;;;;;;10.80;8.40;;;;;;;13.25;100.00;98450.15;107274;1273;97864;-78
2023/10/27 11:54:01;;;;;;;11.10;8.80;;;;;;;13.24;100.00;98448.75;107384;1273;95873;-78
2023/10/27 11:56:47;;;;;;;11.90;8.40;;;;;;;13.26;100.00;98444.02;107345;1273;95573;-79
2023/10/27 11:59:33;;;;;;;13.10;9.60;;;;;;;13.27;100.00;98437.31;107315;1273;101488;-79
2023/10/27 12:02:18;;;;;;;12.00;8.70;;;;;;;13.30;100.00;98433.83;107364;1274;99204;-79
2023/10/27 12:05:03;;;;;;;11.70;9.00;;;;;;;13.32;100.00;98432.89;107328;1273;97864;-79
2023/10/27 12:07:48;;;;;;;14.40;9.10;;;;;;;13.33;100.00;98426.72;107323;1273;95735;-79
2023/10/27 12:10:34;;;;;;;10.80;9.00;;;;;;;13.32;100.00;98427.73;107281;1273;95690;-78
2023/10/27 12:13:23;;;;;;;10.30;9.10;;;;;;;13.32;100.00;98426.11;107371;1273;102695;-79
2023/10/27 12:16:08;;;;;;;14.40;8.90;;;;;;;13.30;100.00;98420.18;107398;1273;99128;-79
2023/10/27 12:18:57;;;;;;;11.70;9.00;;;;;;;13.28;100.00;98420.44;107341;1273;97837;-79
2023/10/27 12:21:42;;;;;;;11.40;9.00;;;;;;;13.24;100.00;98418.45;107210;1272;95856;-79
2023/10/27 12:24:27;;;;;;;13.20;9.60;;;;;;;13.19;100.00;98417.39;107343;1274;95290;-79
2023/10/27 12:27:13;;;;;;;12.00;9.30;;;;;;;13.17;100.00;98412.01;107250;1276;102641;-79
2023/10/27 12:29:58;;;;;;;14.00;9.40;;;;;;;13.15;100.00;98407.54;107352;1276;99122;-78